sensor_id;sensor_type;location;lat;lon;timestamp;P1;durP1;ratioP1;P2;durP2;ratioP2
68987;SDS011;56038;46.080;11.116;2023-03-23T00:02:24;19.48;;;12.95;;
68987;SDS011;56038;46.080;11.116;2023-03-23T00:07:26;21.57;;;13.67;;
68987;SDS011;56038;46.080;11.116;2023-03-23T00:12:28;23.92;;;15.25;;
68987;SDS011;56038;46.080;11.116;2023-03-23T00:17:35;18.75;;;13.02;;
68987;SDS011;56038;46.080;11.116;2023-03-23T00:22:37;21.27;;;14.68;;
68987;SDS011;56038;46.080;11.116;2023-03-23T00:27:39;23.15;;;15.60;;
68987;SDS011;56038;46.080;11.116;2023-03-23T00:32:42;20.98;;;14.10;;
68987;SDS011;56038;46.080;11.116;2023-03-23T00:37:44;21.92;;;13.95;;
68987;SDS011;56038;46.080;11.116;2023-03-23T00:42:45;17.48;;;12.80;;
68987;SDS011;56038;46.080;11.116;2023-03-23T00:47:50;22.20;;;15.43;;
68987;SDS011;56038;46.080;11.116;2023-03-23T00:52:52;22.33;;;14.88;;
68987;SDS011;56038;46.080;11.116;2023-03-23T00:57:56;20.17;;;13.43;;
68987;SDS011;56038;46.080;11.116;2023-03-23T01:02:59;23.77;;;15.73;;
68987;SDS011;56038;46.080;11.116;2023-03-23T01:08:01;26.52;;;16.73;;
68987;SDS011;56038;46.080;11.116;2023-03-23T01:13:03;26.00;;;16.30;;
68987;SDS011;56038;46.080;11.116;2023-03-23T01:18:07;23.92;;;14.05;;
68987;SDS011;56038;46.080;11.116;2023-03-23T01:23:08;21.33;;;15.38;;
68987;SDS011;56038;46.080;11.116;2023-03-23T01:28:10;24.00;;;14.80;;
68987;SDS011;56038;46.080;11.116;2023-03-23T01:33:14;23.63;;;14.98;;
68987;SDS011;56038;46.080;11.116;2023-03-23T01:38:15;22.98;;;15.00;;
68987;SDS011;56038;46.080;11.116;2023-03-23T01:43:17;27.40;;;17.00;;
68987;SDS011;56038;46.080;11.116;2023-03-23T01:48:22;22.10;;;14.98;;
68987;SDS011;56038;46.080;11.116;2023-03-23T01:53:28;23.98;;;16.25;;
68987;SDS011;56038;46.080;11.116;2023-03-23T01:58:38;26.25;;;15.85;;
68987;SDS011;56038;46.080;11.116;2023-03-23T02:03:43;25.92;;;16.63;;
68987;SDS011;56038;46.080;11.116;2023-03-23T02:08:48;23.80;;;14.65;;
68987;SDS011;56038;46.080;11.116;2023-03-23T02:13:51;27.75;;;15.93;;
68987;SDS011;56038;46.080;11.116;2023-03-23T02:18:58;19.02;;;13.45;;
68987;SDS011;56038;46.080;11.116;2023-03-23T02:24:26;20.98;;;13.80;;
68987;SDS011;56038;46.080;11.116;2023-03-23T02:29:55;19.13;;;13.13;;
68987;SDS011;56038;46.080;11.116;2023-03-23T02:35:12;28.55;;;16.15;;
68987;SDS011;56038;46.080;11.116;2023-03-23T02:40:21;21.58;;;13.20;;
68987;SDS011;56038;46.080;11.116;2023-03-23T02:45:27;25.38;;;15.85;;
68987;SDS011;56038;46.080;11.116;2023-03-23T02:50:32;23.58;;;14.68;;
68987;SDS011;56038;46.080;11.116;2023-03-23T02:55:35;23.83;;;14.20;;
68987;SDS011;56038;46.080;11.116;2023-03-23T03:00:40;21.95;;;14.55;;
68987;SDS011;56038;46.080;11.116;2023-03-23T03:05:44;25.17;;;15.98;;
68987;SDS011;56038;46.080;11.116;2023-03-23T03:10:55;25.17;;;15.65;;
68987;SDS011;56038;46.080;11.116;2023-03-23T03:16:03;25.55;;;16.02;;
68987;SDS011;56038;46.080;11.116;2023-03-23T03:21:10;19.63;;;13.93;;
68987;SDS011;56038;46.080;11.116;2023-03-23T03:26:15;21.33;;;15.02;;
68987;SDS011;56038;46.080;11.116;2023-03-23T03:31:21;19.35;;;12.13;;
68987;SDS011;56038;46.080;11.116;2023-03-23T03:36:29;23.27;;;15.15;;
68987;SDS011;56038;46.080;11.116;2023-03-23T03:41:35;20.95;;;14.35;;
68987;SDS011;56038;46.080;11.116;2023-03-23T03:46:38;19.98;;;14.25;;
68987;SDS011;56038;46.080;11.116;2023-03-23T03:51:41;21.95;;;13.98;;
68987;SDS011;56038;46.080;11.116;2023-03-23T03:56:43;26.73;;;15.52;;
68987;SDS011;56038;46.080;11.116;2023-03-23T04:01:45;25.05;;;16.13;;
68987;SDS011;56038;46.080;11.116;2023-03-23T04:06:48;24.33;;;15.32;;
68987;SDS011;56038;46.080;11.116;2023-03-23T04:11:50;24.58;;;15.25;;
68987;SDS011;56038;46.080;11.116;2023-03-23T04:16:52;23.08;;;14.45;;
68987;SDS011;56038;46.080;11.116;2023-03-23T04:21:58;20.75;;;13.85;;
68987;SDS011;56038;46.080;11.116;2023-03-23T04:27:00;22.38;;;14.77;;
68987;SDS011;56038;46.080;11.116;2023-03-23T04:32:02;20.02;;;13.43;;
68987;SDS011;56038;46.080;11.116;2023-03-23T04:37:05;22.58;;;14.00;;
68987;SDS011;56038;46.080;11.116;2023-03-23T04:42:08;24.38;;;15.25;;
68987;SDS011;56038;46.080;11.116;2023-03-23T04:47:11;23.08;;;16.00;;
68987;SDS011;56038;46.080;11.116;2023-03-23T04:52:14;23.38;;;14.88;;
68987;SDS011;56038;46.080;11.116;2023-03-23T04:57:16;27.85;;;16.52;;
68987;SDS011;56038;46.080;11.116;2023-03-23T05:02:17;23.60;;;14.93;;
68987;SDS011;56038;46.080;11.116;2023-03-23T05:07:21;24.75;;;16.10;;
68987;SDS011;56038;46.080;11.116;2023-03-23T05:12:22;23.15;;;15.20;;
68987;SDS011;56038;46.080;11.116;2023-03-23T05:17:25;22.85;;;14.55;;
68987;SDS011;56038;46.080;11.116;2023-03-23T05:22:28;22.48;;;14.90;;
68987;SDS011;56038;46.080;11.116;2023-03-23T05:27:32;23.33;;;15.05;;
68987;SDS011;56038;46.080;11.116;2023-03-23T05:32:34;27.02;;;17.63;;
68987;SDS011;56038;46.080;11.116;2023-03-23T05:37:38;27.95;;;18.13;;
68987;SDS011;56038;46.080;11.116;2023-03-23T05:42:40;28.02;;;17.30;;
68987;SDS011;56038;46.080;11.116;2023-03-23T05:47:42;30.77;;;17.38;;
68987;SDS011;56038;46.080;11.116;2023-03-23T05:52:46;25.48;;;17.00;;
68987;SDS011;56038;46.080;11.116;2023-03-23T05:57:48;28.63;;;19.42;;
68987;SDS011;56038;46.080;11.116;2023-03-23T06:02:53;26.70;;;17.65;;
68987;SDS011;56038;46.080;11.116;2023-03-23T06:07:57;28.30;;;18.75;;
68987;SDS011;56038;46.080;11.116;2023-03-23T06:12:59;24.17;;;15.95;;
68987;SDS011;56038;46.080;11.116;2023-03-23T06:18:02;27.98;;;17.45;;
68987;SDS011;56038;46.080;11.116;2023-03-23T06:23:07;26.63;;;17.17;;
68987;SDS011;56038;46.080;11.116;2023-03-23T06:28:09;27.88;;;17.58;;
68987;SDS011;56038;46.080;11.116;2023-03-23T06:33:11;25.75;;;16.35;;
68987;SDS011;56038;46.080;11.116;2023-03-23T06:38:14;25.05;;;15.52;;
68987;SDS011;56038;46.080;11.116;2023-03-23T06:43:16;24.45;;;17.05;;
68987;SDS011;56038;46.080;11.116;2023-03-23T06:48:17;27.13;;;16.20;;
68987;SDS011;56038;46.080;11.116;2023-03-23T06:53:21;24.50;;;15.68;;
68987;SDS011;56038;46.080;11.116;2023-03-23T06:58:22;27.63;;;18.33;;
68987;SDS011;56038;46.080;11.116;2023-03-23T07:03:24;30.27;;;16.85;;
68987;SDS011;56038;46.080;11.116;2023-03-23T07:08:29;15.07;;;11.15;;
68987;SDS011;56038;46.080;11.116;2023-03-23T07:13:31;18.90;;;12.95;;
68987;SDS011;56038;46.080;11.116;2023-03-23T07:18:33;21.80;;;13.68;;
68987;SDS011;56038;46.080;11.116;2023-03-23T07:23:36;24.55;;;15.50;;
68987;SDS011;56038;46.080;11.116;2023-03-23T07:28:38;23.42;;;15.55;;
68987;SDS011;56038;46.080;11.116;2023-03-23T07:33:40;27.42;;;17.48;;
68987;SDS011;56038;46.080;11.116;2023-03-23T07:38:43;21.52;;;15.45;;
68987;SDS011;56038;46.080;11.116;2023-03-23T07:43:45;24.13;;;16.90;;
68987;SDS011;56038;46.080;11.116;2023-03-23T07:48:47;28.83;;;17.48;;
68987;SDS011;56038;46.080;11.116;2023-03-23T07:53:50;21.27;;;15.85;;
68987;SDS011;56038;46.080;11.116;2023-03-23T07:58:52;28.30;;;18.17;;
68987;SDS011;56038;46.080;11.116;2023-03-23T08:03:54;21.27;;;15.32;;
68987;SDS011;56038;46.080;11.116;2023-03-23T08:08:58;22.23;;;16.27;;
68987;SDS011;56038;46.080;11.116;2023-03-23T08:14:07;19.45;;;14.93;;
68987;SDS011;56038;46.080;11.116;2023-03-23T08:19:08;23.83;;;16.88;;
68987;SDS011;56038;46.080;11.116;2023-03-23T08:24:11;24.45;;;16.58;;
68987;SDS011;56038;46.080;11.116;2023-03-23T08:29:13;22.92;;;15.57;;
68987;SDS011;56038;46.080;11.116;2023-03-23T08:34:16;21.48;;;15.45;;
68987;SDS011;56038;46.080;11.116;2023-03-23T08:39:19;17.70;;;11.68;;
68987;SDS011;56038;46.080;11.116;2023-03-23T08:44:22;22.63;;;15.83;;
68987;SDS011;56038;46.080;11.116;2023-03-23T08:49:24;20.67;;;14.50;;
68987;SDS011;56038;46.080;11.116;2023-03-23T08:54:28;19.50;;;14.65;;
68987;SDS011;56038;46.080;11.116;2023-03-23T08:59:31;31.07;;;21.03;;
68987;SDS011;56038;46.080;11.116;2023-03-23T09:04:33;23.00;;;16.88;;
68987;SDS011;56038;46.080;11.116;2023-03-23T09:09:36;21.27;;;15.52;;
68987;SDS011;56038;46.080;11.116;2023-03-23T09:14:39;23.35;;;16.05;;
68987;SDS011;56038;46.080;11.116;2023-03-23T09:19:41;22.92;;;16.33;;
68987;SDS011;56038;46.080;11.116;2023-03-23T09:24:44;24.02;;;16.48;;
68987;SDS011;56038;46.080;11.116;2023-03-23T09:29:46;22.73;;;16.13;;
68987;SDS011;56038;46.080;11.116;2023-03-23T09:34:48;23.88;;;15.73;;
68987;SDS011;56038;46.080;11.116;2023-03-23T09:39:52;19.38;;;14.65;;
68987;SDS011;56038;46.080;11.116;2023-03-23T09:44:57;20.02;;;14.07;;
68987;SDS011;56038;46.080;11.116;2023-03-23T09:50:10;23.42;;;15.85;;
68987;SDS011;56038;46.080;11.116;2023-03-23T09:55:16;24.55;;;15.20;;
68987;SDS011;56038;46.080;11.116;2023-03-23T10:00:20;23.70;;;17.63;;
68987;SDS011;56038;46.080;11.116;2023-03-23T10:05:28;24.27;;;14.65;;
68987;SDS011;56038;46.080;11.116;2023-03-23T10:10:36;22.42;;;16.42;;
68987;SDS011;56038;46.080;11.116;2023-03-23T10:15:48;23.05;;;18.10;;
68987;SDS011;56038;46.080;11.116;2023-03-23T10:20:53;22.15;;;14.77;;
68987;SDS011;56038;46.080;11.116;2023-03-23T10:25:59;23.67;;;16.17;;
68987;SDS011;56038;46.080;11.116;2023-03-23T10:31:08;24.92;;;17.35;;
68987;SDS011;56038;46.080;11.116;2023-03-23T10:36:14;28.02;;;19.52;;
68987;SDS011;56038;46.080;11.116;2023-03-23T10:41:21;23.40;;;15.52;;
68987;SDS011;56038;46.080;11.116;2023-03-23T10:46:27;23.13;;;16.83;;
68987;SDS011;56038;46.080;11.116;2023-03-23T10:51:36;17.48;;;13.75;;
68987;SDS011;56038;46.080;11.116;2023-03-23T10:56:44;25.23;;;14.93;;
68987;SDS011;56038;46.080;11.116;2023-03-23T11:01:48;21.67;;;15.02;;
68987;SDS011;56038;46.080;11.116;2023-03-23T11:07:00;18.67;;;15.05;;
68987;SDS011;56038;46.080;11.116;2023-03-23T11:12:15;21.52;;;15.30;;
68987;SDS011;56038;46.080;11.116;2023-03-23T11:17:22;20.83;;;16.88;;
68987;SDS011;56038;46.080;11.116;2023-03-23T11:22:27;24.70;;;18.23;;
68987;SDS011;56038;46.080;11.116;2023-03-23T11:27:31;20.63;;;15.23;;
68987;SDS011;56038;46.080;11.116;2023-03-23T11:32:35;19.02;;;14.30;;
68987;SDS011;56038;46.080;11.116;2023-03-23T11:37:40;21.20;;;16.08;;
68987;SDS011;56038;46.080;11.116;2023-03-23T11:42:46;24.85;;;17.15;;
68987;SDS011;56038;46.080;11.116;2023-03-23T11:47:53;20.20;;;15.68;;
68987;SDS011;56038;46.080;11.116;2023-03-23T11:53:01;21.27;;;15.85;;
68987;SDS011;56038;46.080;11.116;2023-03-23T11:58:13;25.23;;;15.75;;
68987;SDS011;56038;46.080;11.116;2023-03-23T12:03:30;28.65;;;18.67;;
68987;SDS011;56038;46.080;11.116;2023-03-23T12:08:50;18.17;;;13.07;;
68987;SDS011;56038;46.080;11.116;2023-03-23T12:14:03;21.65;;;15.23;;
68987;SDS011;56038;46.080;11.116;2023-03-23T12:19:16;18.67;;;14.15;;
68987;SDS011;56038;46.080;11.116;2023-03-23T12:24:29;19.83;;;14.40;;
68987;SDS011;56038;46.080;11.116;2023-03-23T12:29:47;16.88;;;12.60;;
68987;SDS011;56038;46.080;11.116;2023-03-23T12:35:01;17.98;;;12.65;;
68987;SDS011;56038;46.080;11.116;2023-03-23T12:45:49;13.10;;;10.32;;
68987;SDS011;56038;46.080;11.116;2023-03-23T12:51:06;14.52;;;11.10;;
68987;SDS011;56038;46.080;11.116;2023-03-23T12:56:14;14.60;;;10.57;;
68987;SDS011;56038;46.080;11.116;2023-03-23T13:01:22;14.48;;;10.82;;
68987;SDS011;56038;46.080;11.116;2023-03-23T13:06:28;15.55;;;10.00;;
68987;SDS011;56038;46.080;11.116;2023-03-23T13:11:36;14.88;;;11.13;;
68987;SDS011;56038;46.080;11.116;2023-03-23T13:16:41;18.83;;;13.00;;
68987;SDS011;56038;46.080;11.116;2023-03-23T13:21:50;14.13;;;10.20;;
68987;SDS011;56038;46.080;11.116;2023-03-23T13:26:58;14.63;;;10.27;;
68987;SDS011;56038;46.080;11.116;2023-03-23T13:32:06;14.67;;;10.43;;
68987;SDS011;56038;46.080;11.116;2023-03-23T13:37:19;14.68;;;9.85;;
68987;SDS011;56038;46.080;11.116;2023-03-23T13:42:25;16.95;;;10.82;;
68987;SDS011;56038;46.080;11.116;2023-03-23T13:47:35;18.85;;;12.10;;
68987;SDS011;56038;46.080;11.116;2023-03-23T13:52:45;15.05;;;9.95;;
68987;SDS011;56038;46.080;11.116;2023-03-23T13:57:52;14.93;;;9.75;;
68987;SDS011;56038;46.080;11.116;2023-03-23T14:03:01;13.93;;;8.88;;
68987;SDS011;56038;46.080;11.116;2023-03-23T14:08:11;13.43;;;9.50;;
68987;SDS011;56038;46.080;11.116;2023-03-23T14:13:16;16.17;;;10.65;;
68987;SDS011;56038;46.080;11.116;2023-03-23T14:18:23;20.55;;;12.07;;
68987;SDS011;56038;46.080;11.116;2023-03-23T14:23:30;19.45;;;11.73;;
68987;SDS011;56038;46.080;11.116;2023-03-23T14:28:36;21.42;;;12.80;;
68987;SDS011;56038;46.080;11.116;2023-03-23T14:33:41;24.15;;;14.23;;
68987;SDS011;56038;46.080;11.116;2023-03-23T14:38:43;20.17;;;11.57;;
68987;SDS011;56038;46.080;11.116;2023-03-23T14:43:45;23.65;;;14.55;;
68987;SDS011;56038;46.080;11.116;2023-03-23T14:48:48;21.60;;;12.10;;
68987;SDS011;56038;46.080;11.116;2023-03-23T14:53:50;19.75;;;13.52;;
68987;SDS011;56038;46.080;11.116;2023-03-23T14:58:54;22.35;;;13.63;;
68987;SDS011;56038;46.080;11.116;2023-03-23T15:04:08;20.65;;;12.18;;
68987;SDS011;56038;46.080;11.116;2023-03-23T15:09:14;21.73;;;11.23;;
68987;SDS011;56038;46.080;11.116;2023-03-23T15:14:20;20.55;;;12.13;;
68987;SDS011;56038;46.080;11.116;2023-03-23T15:19:25;24.48;;;12.23;;
68987;SDS011;56038;46.080;11.116;2023-03-23T15:24:31;20.88;;;11.45;;
68987;SDS011;56038;46.080;11.116;2023-03-23T15:29:45;24.45;;;12.50;;
68987;SDS011;56038;46.080;11.116;2023-03-23T15:34:49;22.65;;;12.80;;
68987;SDS011;56038;46.080;11.116;2023-03-23T15:39:52;19.97;;;10.37;;
68987;SDS011;56038;46.080;11.116;2023-03-23T15:44:55;16.02;;;10.05;;
68987;SDS011;56038;46.080;11.116;2023-03-23T15:50:11;22.02;;;11.85;;
68987;SDS011;56038;46.080;11.116;2023-03-23T15:55:25;17.17;;;9.77;;
68987;SDS011;56038;46.080;11.116;2023-03-23T16:00:29;21.23;;;11.55;;
68987;SDS011;56038;46.080;11.116;2023-03-23T16:05:32;18.45;;;11.05;;
68987;SDS011;56038;46.080;11.116;2023-03-23T16:10:35;18.97;;;10.63;;
68987;SDS011;56038;46.080;11.116;2023-03-23T16:15:37;16.92;;;8.95;;
68987;SDS011;56038;46.080;11.116;2023-03-23T16:20:40;13.05;;;8.75;;
68987;SDS011;56038;46.080;11.116;2023-03-23T16:25:42;10.98;;;7.10;;
68987;SDS011;56038;46.080;11.116;2023-03-23T16:30:44;11.32;;;7.35;;
68987;SDS011;56038;46.080;11.116;2023-03-23T16:35:47;12.50;;;7.43;;
68987;SDS011;56038;46.080;11.116;2023-03-23T16:40:49;14.55;;;7.95;;
68987;SDS011;56038;46.080;11.116;2023-03-23T16:45:54;12.05;;;7.80;;
68987;SDS011;56038;46.080;11.116;2023-03-23T16:50:58;12.80;;;6.75;;
68987;SDS011;56038;46.080;11.116;2023-03-23T16:55:59;15.48;;;9.07;;
68987;SDS011;56038;46.080;11.116;2023-03-23T17:01:01;12.77;;;8.02;;
68987;SDS011;56038;46.080;11.116;2023-03-23T17:06:05;15.70;;;8.18;;
68987;SDS011;56038;46.080;11.116;2023-03-23T17:11:07;18.40;;;8.55;;
68987;SDS011;56038;46.080;11.116;2023-03-23T17:16:10;12.60;;;7.63;;
68987;SDS011;56038;46.080;11.116;2023-03-23T17:21:14;14.45;;;8.43;;
68987;SDS011;56038;46.080;11.116;2023-03-23T17:26:15;13.43;;;7.60;;
68987;SDS011;56038;46.080;11.116;2023-03-23T17:31:17;14.23;;;8.70;;
68987;SDS011;56038;46.080;11.116;2023-03-23T17:36:20;15.15;;;8.35;;
68987;SDS011;56038;46.080;11.116;2023-03-23T17:41:22;12.93;;;7.40;;
68987;SDS011;56038;46.080;11.116;2023-03-23T17:46:24;15.27;;;8.23;;
68987;SDS011;56038;46.080;11.116;2023-03-23T17:51:27;16.15;;;8.32;;
68987;SDS011;56038;46.080;11.116;2023-03-23T17:56:29;13.82;;;7.70;;
68987;SDS011;56038;46.080;11.116;2023-03-23T18:01:31;11.88;;;7.15;;
68987;SDS011;56038;46.080;11.116;2023-03-23T18:06:34;13.95;;;8.40;;
68987;SDS011;56038;46.080;11.116;2023-03-23T18:11:36;11.57;;;6.88;;
68987;SDS011;56038;46.080;11.116;2023-03-23T18:16:37;9.05;;;6.03;;
68987;SDS011;56038;46.080;11.116;2023-03-23T18:21:41;13.57;;;6.85;;
68987;SDS011;56038;46.080;11.116;2023-03-23T18:26:43;10.82;;;7.00;;
68987;SDS011;56038;46.080;11.116;2023-03-23T18:31:44;11.70;;;6.75;;
68987;SDS011;56038;46.080;11.116;2023-03-23T18:36:48;18.00;;;8.13;;
68987;SDS011;56038;46.080;11.116;2023-03-23T18:41:50;12.68;;;7.25;;
68987;SDS011;56038;46.080;11.116;2023-03-23T18:46:52;13.90;;;7.68;;
68987;SDS011;56038;46.080;11.116;2023-03-23T18:51:58;11.57;;;6.70;;
68987;SDS011;56038;46.080;11.116;2023-03-23T18:57:00;14.88;;;9.00;;
68987;SDS011;56038;46.080;11.116;2023-03-23T19:02:02;12.77;;;7.28;;
68987;SDS011;56038;46.080;11.116;2023-03-23T19:07:06;11.00;;;6.35;;
68987;SDS011;56038;46.080;11.116;2023-03-23T19:12:08;10.38;;;5.70;;
68987;SDS011;56038;46.080;11.116;2023-03-23T19:17:11;12.50;;;7.38;;
68987;SDS011;56038;46.080;11.116;2023-03-23T19:22:14;15.18;;;9.35;;
68987;SDS011;56038;46.080;11.116;2023-03-23T19:27:16;12.27;;;7.72;;
68987;SDS011;56038;46.080;11.116;2023-03-23T19:32:19;18.67;;;10.15;;
68987;SDS011;56038;46.080;11.116;2023-03-23T19:37:26;13.40;;;7.28;;
68987;SDS011;56038;46.080;11.116;2023-03-23T19:42:28;12.65;;;8.50;;
68987;SDS011;56038;46.080;11.116;2023-03-23T19:47:33;11.95;;;7.25;;
68987;SDS011;56038;46.080;11.116;2023-03-23T19:52:37;11.45;;;7.90;;
68987;SDS011;56038;46.080;11.116;2023-03-23T19:57:39;17.38;;;8.60;;
68987;SDS011;56038;46.080;11.116;2023-03-23T20:02:41;13.20;;;7.22;;
68987;SDS011;56038;46.080;11.116;2023-03-23T20:07:50;16.00;;;9.07;;
68987;SDS011;56038;46.080;11.116;2023-03-23T20:12:52;14.07;;;8.43;;
68987;SDS011;56038;46.080;11.116;2023-03-23T20:17:56;11.93;;;7.13;;
68987;SDS011;56038;46.080;11.116;2023-03-23T20:23:00;13.52;;;8.55;;
68987;SDS011;56038;46.080;11.116;2023-03-23T20:28:05;12.52;;;7.47;;
68987;SDS011;56038;46.080;11.116;2023-03-23T20:33:07;11.43;;;6.00;;
68987;SDS011;56038;46.080;11.116;2023-03-23T20:38:11;13.68;;;8.10;;
68987;SDS011;56038;46.080;11.116;2023-03-23T20:43:12;11.63;;;6.72;;
68987;SDS011;56038;46.080;11.116;2023-03-23T20:48:14;15.70;;;9.40;;
68987;SDS011;56038;46.080;11.116;2023-03-23T20:53:17;17.80;;;9.32;;
68987;SDS011;56038;46.080;11.116;2023-03-23T20:58:19;11.27;;;7.32;;
68987;SDS011;56038;46.080;11.116;2023-03-23T21:03:21;12.15;;;7.18;;
68987;SDS011;56038;46.080;11.116;2023-03-23T21:08:25;16.15;;;8.98;;
68987;SDS011;56038;46.080;11.116;2023-03-23T21:13:28;13.70;;;8.90;;
68987;SDS011;56038;46.080;11.116;2023-03-23T21:18:33;13.20;;;8.05;;
68987;SDS011;56038;46.080;11.116;2023-03-23T21:23:41;15.75;;;8.80;;
68987;SDS011;56038;46.080;11.116;2023-03-23T21:28:46;10.65;;;5.93;;
68987;SDS011;56038;46.080;11.116;2023-03-23T21:33:49;11.98;;;7.55;;
68987;SDS011;56038;46.080;11.116;2023-03-23T21:38:53;16.23;;;9.10;;
68987;SDS011;56038;46.080;11.116;2023-03-23T21:43:55;16.70;;;9.57;;
68987;SDS011;56038;46.080;11.116;2023-03-23T21:48:57;17.25;;;9.52;;
68987;SDS011;56038;46.080;11.116;2023-03-23T21:54:02;21.67;;;12.27;;
68987;SDS011;56038;46.080;11.116;2023-03-23T22:04:07;17.90;;;11.05;;
68987;SDS011;56038;46.080;11.116;2023-03-23T22:09:12;15.00;;;9.73;;
68987;SDS011;56038;46.080;11.116;2023-03-23T22:14:14;18.55;;;11.43;;
68987;SDS011;56038;46.080;11.116;2023-03-23T22:19:16;18.92;;;11.60;;
68987;SDS011;56038;46.080;11.116;2023-03-23T22:24:19;19.08;;;11.65;;
68987;SDS011;56038;46.080;11.116;2023-03-23T22:29:21;14.30;;;9.73;;
68987;SDS011;56038;46.080;11.116;2023-03-23T22:34:23;15.00;;;9.63;;
68987;SDS011;56038;46.080;11.116;2023-03-23T22:39:26;24.90;;;13.13;;
68987;SDS011;56038;46.080;11.116;2023-03-23T22:44:28;20.13;;;13.98;;
68987;SDS011;56038;46.080;11.116;2023-03-23T22:49:31;15.95;;;11.82;;
68987;SDS011;56038;46.080;11.116;2023-03-23T22:54:35;21.88;;;13.82;;
68987;SDS011;56038;46.080;11.116;2023-03-23T22:59:36;20.40;;;12.90;;
68987;SDS011;56038;46.080;11.116;2023-03-23T23:04:38;21.05;;;13.57;;
68987;SDS011;56038;46.080;11.116;2023-03-23T23:09:42;20.88;;;13.75;;
68987;SDS011;56038;46.080;11.116;2023-03-23T23:14:44;21.02;;;12.77;;
68987;SDS011;56038;46.080;11.116;2023-03-23T23:19:46;15.05;;;11.13;;
68987;SDS011;56038;46.080;11.116;2023-03-23T23:24:49;16.85;;;11.75;;
68987;SDS011;56038;46.080;11.116;2023-03-23T23:29:51;17.85;;;11.13;;
68987;SDS011;56038;46.080;11.116;2023-03-23T23:34:53;13.95;;;10.30;;
68987;SDS011;56038;46.080;11.116;2023-03-23T23:39:56;15.55;;;10.90;;
68987;SDS011;56038;46.080;11.116;2023-03-23T23:44:58;12.23;;;9.93;;
68987;SDS011;56038;46.080;11.116;2023-03-23T23:50:00;19.02;;;12.90;;
68987;SDS011;56038;46.080;11.116;2023-03-23T23:55:05;21.27;;;14.80;;
